< < Back
Terminal Aerodrome Forecast


Current Version              Previous Versions:   1  2  3  4  5  6  7  8  9  

Terminal Aerodrome Forecast

163
FTUS44 KBMX 181300 AAA
TAFTCL
TAF AMD
KTCL 181321Z 1813/1912 04007KT 4SM -RA BR OVC015
     FM190300 06012G20KT P6SM BKN025 OVC050
     FM190900 01005KT P6SM SCT050=

Latest METAR

567
SAUS70 KWBC 182300 RRA
MTRTCL
METAR KTCL 182253Z 04005KT 10SM FEW080 OVC100 15/11 A3016 RMK AO2 SLP213
T01500106


USA.gov is the U.S. government's official web portal to all federal, state and local government web resources and services.